Time;durP1;ratioP1;P1;durP2;ratioP2;P2;SDS_P1;SDS_P2;PMS_P1;PMS_P2;Temp;Humidity;BMP_temperature;BMP_pressure;BME280_temperature;BME280_humidity;BME280_pressure;Samples;Min_cycle;Max_cycle;Signal;HPM_P1;HPM_P2
2023/06/22 00:01:09;;;;;;;1999.90;999.90;;;24.00;83.70;;;;;;5093965;28;20502;-68
2023/06/22 00:03:34;;;;;;;1999.90;999.90;;;24.00;84.40;;;;;;5095378;28;20186;-68
2023/06/22 00:06:00;;;;;;;1999.90;999.90;;;24.00;84.70;;;;;;5094878;28;20201;-68
2023/06/22 00:08:25;;;;;;;1999.90;999.90;;;24.10;84.90;;;;;;5094952;28;20170;-68
2023/06/22 00:10:51;;;;;;;1999.90;999.90;;;24.00;84.70;;;;;;5094908;28;20163;-67
2023/06/22 00:13:17;;;;;;;1999.90;999.90;;;24.00;85.20;;;;;;5095102;28;20283;-68
2023/06/22 00:15:43;;;;;;;1999.90;999.90;;;24.00;85.70;;;;;;5094718;28;20680;-68
2023/06/22 00:18:10;;;;;;;1999.90;999.90;;;24.00;85.90;;;;;;5094819;28;20383;-68
2023/06/22 00:20:37;;;;;;;1999.90;999.90;;;24.00;85.90;;;;;;5094802;28;20181;-68
2023/06/22 00:23:09;;;;;;;1999.90;999.90;;;24.00;85.50;;;;;;5094644;28;20501;-68
2023/06/22 00:25:41;;;;;;;1999.90;999.90;;;24.00;85.40;;;;;;5094579;28;20419;-67
2023/06/22 00:28:07;;;;;;;1999.90;999.90;;;24.00;85.00;;;;;;5094857;28;20777;-68
2023/06/22 00:30:33;;;;;;;1999.90;999.90;;;24.00;84.70;;;;;;5094543;28;20407;-67
2023/06/22 00:32:59;;;;;;;1999.90;999.90;;;24.00;85.00;;;;;;5094332;28;20475;-68
2023/06/22 00:35:29;;;;;;;1999.90;999.90;;;24.00;85.90;;;;;;5094766;28;20543;-67
2023/06/22 00:38:03;;;;;;;1999.90;999.90;;;24.00;86.30;;;;;;5094613;28;21068;-68
2023/06/22 00:40:30;;;;;;;1999.90;999.90;;;24.00;86.30;;;;;;5094681;28;20387;-68
2023/06/22 00:42:56;;;;;;;1999.90;999.90;;;24.00;85.80;;;;;;5094298;28;20405;-67
2023/06/22 00:45:23;;;;;;;1999.90;999.90;;;24.00;85.90;;;;;;5094119;28;20463;-68
2023/06/22 00:47:53;;;;;;;1999.90;999.90;;;24.00;86.20;;;;;;5094358;28;20405;-67
2023/06/22 00:50:22;;;;;;;1999.90;999.90;;;24.00;87.40;;;;;;5094254;28;20382;-68
2023/06/22 00:52:56;;;;;;;1999.90;999.90;;;23.90;86.80;;;;;;5094085;28;20388;-68
2023/06/22 00:55:23;;;;;;;1999.90;999.90;;;23.90;87.90;;;;;;5094112;28;20431;-68
2023/06/22 00:57:48;;;;;;;1999.90;999.90;;;23.90;89.00;;;;;;5094116;28;20415;-68
2023/06/22 01:00:19;;;;;;;1999.90;999.90;;;23.90;89.70;;;;;;5093956;28;20850;-68
2023/06/22 01:02:46;;;;;;;1999.90;999.90;;;23.80;90.00;;;;;;5093970;28;20227;-68
2023/06/22 01:05:15;;;;;;;1999.90;999.90;;;23.80;90.30;;;;;;5094097;28;20451;-67
2023/06/22 01:07:59;;;;;;;1999.90;999.90;;;23.70;90.50;;;;;;5094116;28;20372;-68
2023/06/22 01:10:27;;;;;;;1999.90;999.90;;;23.80;91.00;;;;;;5093530;28;20378;-68
2023/06/22 01:13:01;;;;;;;1999.90;999.90;;;23.70;91.30;;;;;;5093668;28;20375;-68
2023/06/22 01:16:00;;;;;;;1999.90;999.90;;;23.80;91.80;;;;;;5093629;28;20455;-68
2023/06/22 01:18:30;;;;;;;1999.90;999.90;;;23.70;92.10;;;;;;5089186;28;20514;-68
2023/06/22 01:20:59;;;;;;;1999.90;999.90;;;23.70;92.60;;;;;;5093468;28;20405;-68
2023/06/22 01:23:51;;;;;;;1999.90;999.90;;;23.60;92.90;;;;;;5093406;28;20459;-68
2023/06/22 01:26:41;;;;;;;1999.90;999.90;;;23.70;93.40;;;;;;5093469;28;20906;-68
2023/06/22 01:29:11;;;;;;;1999.90;999.90;;;23.70;93.70;;;;;;5093387;28;20557;-68
2023/06/22 01:31:38;;;;;;;1999.90;999.90;;;23.60;94.10;;;;;;5093289;28;20388;-67
2023/06/22 01:34:06;;;;;;;1999.90;999.90;;;23.60;94.40;;;;;;5093275;28;20423;-68
2023/06/22 01:36:33;;;;;;;1999.90;999.90;;;23.50;94.60;;;;;;5093283;28;20404;-68
2023/06/22 01:38:59;;;;;;;1999.90;999.90;;;23.50;95.40;;;;;;5093376;28;20367;-67
2023/06/22 01:41:27;;;;;;;1999.90;999.90;;;23.50;95.70;;;;;;5093110;28;20478;-68
2023/06/22 01:43:53;;;;;;;1999.90;999.90;;;23.50;96.10;;;;;;5093004;28;20407;-68
2023/06/22 01:46:20;;;;;;;1999.90;999.90;;;23.50;96.90;;;;;;5092994;28;20440;-68
2023/06/22 01:48:47;;;;;;;1999.90;999.90;;;23.40;96.90;;;;;;5093072;28;20874;-68
2023/06/22 01:51:13;;;;;;;1999.90;999.90;;;23.40;97.50;;;;;;5093257;28;20790;-68
2023/06/22 01:53:39;;;;;;;1999.90;999.90;;;23.40;97.80;;;;;;5092957;28;20415;-67
2023/06/22 01:56:04;;;;;;;1999.90;999.90;;;23.30;98.00;;;;;;5092839;28;20391;-68
2023/06/22 01:58:32;;;;;;;1999.90;999.90;;;23.30;98.10;;;;;;5092780;28;20162;-67
2023/06/22 02:01:10;;;;;;;1999.90;999.90;;;23.30;98.30;;;;;;5092697;28;20174;-67
2023/06/22 02:03:41;;;;;;;1999.90;999.90;;;23.30;98.90;;;;;;5092893;28;20553;-67
2023/06/22 02:06:11;;;;;;;1999.90;999.90;;;23.30;98.60;;;;;;5092614;28;20429;-68
2023/06/22 02:08:43;;;;;;;1999.90;999.90;;;23.30;98.70;;;;;;5092694;28;20370;-67
2023/06/22 02:11:11;;;;;;;1999.90;999.90;;;23.20;99.00;;;;;;5092558;28;20953;-68
2023/06/22 02:13:42;;;;;;;1999.90;999.90;;;23.20;99.10;;;;;;5092795;28;20869;-67
2023/06/22 02:16:11;;;;;;;1999.90;999.90;;;23.20;99.00;;;;;;5093210;28;20416;-68
2023/06/22 02:18:37;;;;;;;1999.90;999.90;;;23.10;99.30;;;;;;5095508;28;20411;-68
2023/06/22 02:21:03;;;;;;;1999.90;999.90;;;23.10;99.90;;;;;;5094952;28;20379;-68
2023/06/22 02:23:28;;;;;;;1999.90;999.90;;;23.10;99.90;;;;;;5094337;28;20182;-67
2023/06/22 02:25:54;;;;;;;1999.90;999.90;;;23.00;99.90;;;;;;5095080;28;20441;-67
2023/06/22 02:28:20;;;;;;;1999.90;999.90;;;23.00;99.90;;;;;;5094295;28;20658;-69
2023/06/22 02:30:45;;;;;;;1999.90;999.90;;;23.00;99.90;;;;;;5094516;28;20170;-68
2023/06/22 02:33:11;;;;;;;1999.90;999.90;;;23.00;99.90;;;;;;5094352;28;20635;-68
2023/06/22 02:35:37;;;;;;;1999.90;999.90;;;23.00;99.90;;;;;;5093986;28;20201;-68
2023/06/22 02:38:04;;;;;;;1999.90;999.90;;;22.90;99.90;;;;;;5094645;28;20224;-68
2023/06/22 02:40:30;;;;;;;1999.90;999.90;;;23.00;99.90;;;;;;5094395;28;20171;-68
2023/06/22 02:43:02;;;;;;;1999.90;999.90;;;22.90;99.90;;;;;;5094051;28;20380;-67
2023/06/22 02:45:27;;;;;;;1999.90;999.90;;;22.80;99.90;;;;;;5094602;28;20571;-68
2023/06/22 02:47:53;;;;;;;1999.90;999.90;;;22.90;99.90;;;;;;5094323;28;20898;-68
2023/06/22 02:50:18;;;;;;;1999.90;999.90;;;22.90;99.90;;;;;;5095141;28;20162;-68
2023/06/22 02:52:44;;;;;;;1999.90;999.90;;;22.90;99.90;;;;;;5094136;28;20198;-68
2023/06/22 02:55:10;;;;;;;1999.90;999.90;;;22.90;99.90;;;;;;5094149;28;20178;-67
2023/06/22 02:57:35;;;;;;;1999.90;999.90;;;22.90;99.90;;;;;;5094592;28;20639;-68
2023/06/22 03:00:15;;;;;;;1999.90;999.90;;;22.90;99.90;;;;;;5094904;28;20198;-68
2023/06/22 03:02:40;;;;;;;1999.90;999.90;;;22.90;99.90;;;;;;5094135;28;20170;-67
2023/06/22 03:05:06;;;;;;;1999.90;999.90;;;22.80;99.90;;;;;;5094066;28;20455;-68
2023/06/22 03:07:32;;;;;;;1999.90;999.90;;;22.80;99.90;;;;;;5094194;28;20208;-68
2023/06/22 03:09:57;;;;;;;1999.90;999.90;;;22.80;99.90;;;;;;5094675;28;20177;-68
2023/06/22 03:12:23;;;;;;;1999.90;999.90;;;22.80;99.90;;;;;;5093684;28;20173;-68
2023/06/22 03:14:48;;;;;;;1999.90;999.90;;;22.80;99.90;;;;;;5094725;28;20187;-67
2023/06/22 03:17:14;;;;;;;1999.90;999.90;;;22.80;99.90;;;;;;5094200;28;20184;-68
2023/06/22 03:19:39;;;;;;;1999.90;999.90;;;22.80;99.90;;;;;;5093950;28;20170;-68
2023/06/22 03:22:06;;;;;;;1999.90;999.90;;;22.70;99.90;;;;;;5093820;28;20244;-69
2023/06/22 03:24:34;;;;;;;1999.90;999.90;;;22.70;99.90;;;;;;5094315;28;20205;-67
2023/06/22 03:27:00;;;;;;;1999.90;999.90;;;22.70;99.90;;;;;;5092022;28;20413;-67
2023/06/22 03:29:25;;;;;;;1999.90;999.90;;;22.70;99.90;;;;;;5092266;28;20544;-67
2023/06/22 03:31:51;;;;;;;1999.90;999.90;;;22.70;99.90;;;;;;5091884;28;20216;-67
2023/06/22 03:34:16;;;;;;;1999.90;999.90;;;22.80;99.90;;;;;;5093371;28;20644;-67
2023/06/22 03:36:45;;;;;;;1999.90;999.90;;;22.70;99.90;;;;;;5095942;28;20166;-67
2023/06/22 03:39:10;;;;;;;1999.90;999.90;;;22.70;99.90;;;;;;5095976;28;20194;-67
2023/06/22 03:41:36;;;;;;;1999.90;999.90;;;22.70;99.90;;;;;;5095488;28;20434;-68
2023/06/22 03:44:01;;;;;;;1999.90;999.90;;;22.80;99.90;;;;;;5095705;28;20170;-67
2023/06/22 03:46:27;;;;;;;1999.90;999.90;;;22.80;99.90;;;;;;5095671;28;20237;-67
2023/06/22 03:48:53;;;;;;;1999.90;999.90;;;22.80;99.90;;;;;;5095657;28;20201;-67
2023/06/22 03:51:18;;;;;;;1999.90;999.90;;;22.70;99.90;;;;;;5095611;28;20982;-67
2023/06/22 03:53:44;;;;;;;1999.90;999.90;;;22.70;99.90;;;;;;5095222;28;20530;-68
2023/06/22 03:56:09;;;;;;;1999.90;999.90;;;22.70;99.90;;;;;;5095201;28;20186;-68
2023/06/22 03:58:36;;;;;;;1999.90;999.90;;;22.70;99.90;;;;;;5095186;28;20529;-67
2023/06/22 04:01:02;;;;;;;1999.90;999.90;;;22.70;99.90;;;;;;5095019;28;20261;-67
2023/06/22 04:03:27;;;;;;;1999.90;999.90;;;22.70;99.90;;;;;;5095056;28;20493;-68
2023/06/22 04:05:53;;;;;;;1999.90;999.90;;;22.70;99.90;;;;;;5094896;28;20197;-68
2023/06/22 04:08:19;;;;;;;1999.90;999.90;;;22.60;99.90;;;;;;5094966;28;20263;-67
2023/06/22 04:10:44;;;;;;;1999.90;999.90;;;22.60;99.90;;;;;;5094800;28;20542;-68
2023/06/22 04:13:10;;;;;;;1999.90;999.90;;;22.40;99.90;;;;;;5094904;28;20270;-67
2023/06/22 04:15:36;;;;;;;1999.90;999.90;;;22.10;99.90;;;;;;5094990;28;20190;-68
2023/06/22 04:18:02;;;;;;;1999.90;999.90;;;21.90;99.90;;;;;;5094836;28;20683;-68
2023/06/22 04:20:28;;;;;;;1999.90;999.90;;;21.90;99.90;;;;;;5094978;28;20177;-67
2023/06/22 04:22:54;;;;;;;1999.90;999.90;;;22.00;99.90;;;;;;5094496;28;20527;-68
2023/06/22 04:25:20;;;;;;;1999.90;999.90;;;22.10;99.90;;;;;;5094525;28;20204;-68
2023/06/22 04:27:46;;;;;;;1999.90;999.90;;;22.10;99.90;;;;;;5094541;28;20379;-67
2023/06/22 04:30:14;;;;;;;1999.90;999.90;;;22.20;99.90;;;;;;5094652;28;20404;-68
2023/06/22 04:32:40;;;;;;;1999.90;999.90;;;22.30;99.90;;;;;;5094691;28;20507;-67
2023/06/22 04:35:07;;;;;;;1999.90;999.90;;;22.30;99.90;;;;;;5095711;28;20524;-68
2023/06/22 04:37:33;;;;;;;1999.90;999.90;;;22.20;99.90;;;;;;5096595;28;20523;-67
2023/06/22 04:39:59;;;;;;;1999.90;999.90;;;22.30;99.90;;;;;;5096122;28;20404;-68
2023/06/22 04:42:28;;;;;;;1999.90;999.90;;;22.40;99.90;;;;;;5095892;28;20465;-68
2023/06/22 04:44:54;;;;;;;1999.90;999.90;;;22.50;99.90;;;;;;5095883;28;20443;-68
2023/06/22 04:47:19;;;;;;;1999.90;999.90;;;22.50;99.90;;;;;;5095414;28;20465;-68
2023/06/22 04:49:45;;;;;;;1999.90;999.90;;;22.60;99.90;;;;;;5096354;28;20887;-67
2023/06/22 04:52:12;;;;;;;1999.90;999.90;;;22.70;99.90;;;;;;5095926;28;20204;-67
2023/06/22 04:54:40;;;;;;;1999.90;999.90;;;22.70;99.90;;;;;;5095725;28;20209;-68
2023/06/22 04:57:09;;;;;;;1999.90;999.90;;;22.70;99.90;;;;;;5094049;28;20473;-68
2023/06/22 04:59:38;;;;;;;1999.90;999.90;;;22.80;99.90;;;;;;5094199;28;20443;-67
2023/06/22 05:02:05;;;;;;;1999.90;999.90;;;22.80;99.90;;;;;;5093812;28;20396;-68
2023/06/22 05:04:31;;;;;;;1999.90;999.90;;;22.80;99.90;;;;;;5093619;28;20458;-68
2023/06/22 05:06:58;;;;;;;1999.90;999.90;;;22.80;99.90;;;;;;5094113;28;20436;-68
2023/06/22 05:09:26;;;;;;;1999.90;999.90;;;22.90;99.90;;;;;;5093689;28;20379;-67
2023/06/22 05:11:52;;;;;;;1999.90;999.90;;;22.80;99.90;;;;;;5093643;28;20977;-67
2023/06/22 05:14:18;;;;;;;1999.90;999.90;;;22.90;99.90;;;;;;5093511;28;20519;-67
2023/06/22 05:16:45;;;;;;;1999.90;999.90;;;22.90;99.90;;;;;;5093622;28;20344;-67
2023/06/22 05:19:11;;;;;;;1999.90;999.90;;;22.80;99.90;;;;;;5093623;28;20412;-68
2023/06/22 05:21:37;;;;;;;1999.90;999.90;;;22.70;99.90;;;;;;5093343;28;20401;-67
2023/06/22 05:24:02;;;;;;;1999.90;999.90;;;22.70;99.90;;;;;;5093436;28;20151;-67
2023/06/22 05:26:32;;;;;;;1999.90;999.90;;;22.70;99.90;;;;;;5093432;28;20451;-67
2023/06/22 05:29:00;;;;;;;1999.90;999.90;;;22.70;99.90;;;;;;5093742;28;20716;-68
2023/06/22 05:31:26;;;;;;;1999.90;999.90;;;22.70;99.90;;;;;;5093270;28;20407;-68
2023/06/22 05:33:52;;;;;;;1999.90;999.90;;;22.80;99.90;;;;;;5093373;28;20409;-67
2023/06/22 05:36:24;;;;;;;1999.90;999.90;;;22.80;99.90;;;;;;5093305;28;20193;-67
2023/06/22 05:38:51;;;;;;;1999.90;999.90;;;22.80;99.90;;;;;;5093242;28;20408;-67
2023/06/22 05:41:16;;;;;;;1999.90;999.90;;;22.80;99.90;;;;;;5093110;28;20400;-68
2023/06/22 05:43:42;;;;;;;1999.90;999.90;;;22.70;99.90;;;;;;5093177;28;20769;-67
2023/06/22 05:46:07;;;;;;;1999.90;999.90;;;22.80;99.90;;;;;;5092907;28;20200;-68
2023/06/22 05:48:33;;;;;;;1999.90;999.90;;;22.80;99.90;;;;;;5093117;28;20163;-68
2023/06/22 05:50:59;;;;;;;1999.90;999.90;;;22.80;99.90;;;;;;5092917;28;20167;-67
2023/06/22 05:53:25;;;;;;;1999.90;999.90;;;22.80;99.90;;;;;;5092918;28;20184;-67
2023/06/22 05:55:50;;;;;;;1999.90;999.90;;;22.80;99.90;;;;;;5092877;28;20456;-67
2023/06/22 05:58:16;;;;;;;1999.90;999.90;;;22.90;99.90;;;;;;5092813;28;20632;-68
2023/06/22 06:00:43;;;;;;;1999.90;999.90;;;23.00;99.90;;;;;;5093109;28;20215;-68
2023/06/22 06:03:09;;;;;;;1999.90;999.90;;;23.00;99.90;;;;;;5095424;28;20295;-67
2023/06/22 06:05:35;;;;;;;1999.90;999.90;;;23.00;99.90;;;;;;5095450;28;20501;-67
2023/06/22 06:08:04;;;;;;;1999.90;999.90;;;22.80;99.90;;;;;;5095589;28;20488;-67
2023/06/22 06:10:30;;;;;;;1999.90;999.90;;;22.70;99.90;;;;;;5095579;28;20416;-67
2023/06/22 06:12:56;;;;;;;1999.90;999.90;;;22.80;99.90;;;;;;5095366;28;20375;-68
2023/06/22 06:15:22;;;;;;;1999.90;999.90;;;22.90;99.90;;;;;;5094950;28;20416;-68
2023/06/22 06:17:52;;;;;;;1999.90;999.90;;;23.10;99.90;;;;;;5095286;28;20404;-68
2023/06/22 06:20:20;;;;;;;1999.90;999.90;;;23.20;99.90;;;;;;5095026;28;20383;-68
2023/06/22 06:22:47;;;;;;;1999.90;999.90;;;23.30;99.90;;;;;;5094975;28;20428;-68
2023/06/22 06:25:15;;;;;;;1999.90;999.90;;;23.40;99.90;;;;;;5095681;28;20799;-68
2023/06/22 06:27:50;;;;;;;1999.90;999.90;;;23.60;99.90;;;;;;5095437;28;20436;-68
2023/06/22 06:30:17;;;;;;;1999.90;999.90;;;23.70;99.90;;;;;;5095384;28;20371;-68
2023/06/22 06:32:45;;;;;;;1999.90;999.90;;;23.80;99.90;;;;;;5094794;28;20382;-68
2023/06/22 06:35:11;;;;;;;1999.90;999.90;;;23.90;99.90;;;;;;5094948;28;20762;-68
2023/06/22 06:37:39;;;;;;;1999.90;999.90;;;24.00;99.90;;;;;;5095166;28;20380;-68
2023/06/22 06:40:10;;;;;;;1999.90;999.90;;;24.10;99.90;;;;;;5093657;28;20412;-67
2023/06/22 06:42:40;;;;;;;1999.90;999.90;;;24.30;99.90;;;;;;5092151;28;20385;-67
2023/06/22 06:45:06;;;;;;;1999.90;999.90;;;24.30;99.90;;;;;;5092220;28;20924;-68
2023/06/22 06:47:32;;;;;;;1999.90;999.90;;;24.40;99.90;;;;;;5092045;28;20379;-68
2023/06/22 06:49:57;;;;;;;1999.90;999.90;;;24.50;99.90;;;;;;5092037;28;20415;-67
2023/06/22 06:52:23;;;;;;;1999.90;999.90;;;24.60;99.90;;;;;;5092035;28;20167;-67
2023/06/22 06:54:49;;;;;;;1999.90;999.90;;;24.70;99.90;;;;;;5091930;28;20193;-67
2023/06/22 06:57:15;;;;;;;1999.90;999.90;;;24.50;99.90;;;;;;5092065;28;20177;-67
2023/06/22 06:59:41;;;;;;;1999.90;999.90;;;24.20;99.90;;;;;;5092063;28;20267;-67
2023/06/22 07:02:07;;;;;;;1999.90;999.90;;;24.20;99.90;;;;;;5091830;28;20404;-67
2023/06/22 07:04:33;;;;;;;1999.90;999.90;;;24.40;99.90;;;;;;5091871;28;20405;-67
2023/06/22 07:07:01;;;;;;;1999.90;999.90;;;24.50;99.90;;;;;;5091816;28;20416;-67
2023/06/22 07:09:26;;;;;;;1999.90;999.90;;;24.50;99.90;;;;;;5093637;28;20171;-68
2023/06/22 07:11:52;;;;;;;1999.90;999.90;;;24.60;99.90;;;;;;5096005;28;20892;-68
2023/06/22 07:14:17;;;;;;;1999.90;999.90;;;24.60;99.90;;;;;;5095937;28;20559;-68
2023/06/22 07:16:43;;;;;;;1999.90;999.90;;;24.80;99.90;;;;;;5095980;28;20839;-68
2023/06/22 07:19:11;;;;;;;1999.90;999.90;;;24.80;99.90;;;;;;5095916;28;20251;-67
2023/06/22 07:21:37;;;;;;;1999.90;999.90;;;24.70;99.90;;;;;;5095539;28;20200;-67
2023/06/22 07:24:03;;;;;;;1999.90;999.90;;;24.60;99.90;;;;;;5095800;28;20375;-67
2023/06/22 07:26:28;;;;;;;1999.90;999.90;;;24.60;99.90;;;;;;5095928;28;20210;-68
2023/06/22 07:28:54;;;;;;;1999.90;999.90;;;24.80;99.90;;;;;;5095747;28;20174;-67
2023/06/22 07:31:19;;;;;;;1999.90;999.90;;;24.90;99.90;;;;;;5095738;28;20170;-68
2023/06/22 07:33:45;;;;;;;1999.90;999.90;;;25.00;99.90;;;;;;5095674;28;20170;-68
2023/06/22 07:36:10;;;;;;;1999.90;999.90;;;25.10;99.90;;;;;;5094940;28;20239;-68
2023/06/22 07:38:36;;;;;;;1999.90;999.90;;;25.10;99.90;;;;;;5095518;28;20170;-68
2023/06/22 07:41:05;;;;;;;1999.90;999.90;;;25.30;99.90;;;;;;5095310;28;20573;-67
2023/06/22 07:43:32;;;;;;;1999.90;999.90;;;25.50;99.90;;;;;;5095595;28;20572;-68
2023/06/22 07:45:58;;;;;;;1999.90;999.90;;;25.70;99.90;;;;;;5095466;28;20459;-68
2023/06/22 07:48:24;;;;;;;1999.90;999.90;;;25.90;99.90;;;;;;5095373;28;20408;-68
2023/06/22 07:50:50;;;;;;;1999.90;999.90;;;26.00;99.90;;;;;;5095235;28;20628;-68
2023/06/22 07:53:15;;;;;;;1999.90;999.90;;;25.90;99.90;;;;;;5095417;28;20599;-67
2023/06/22 07:55:41;;;;;;;1999.90;999.90;;;26.00;99.90;;;;;;5095207;28;20467;-68
2023/06/22 07:58:07;;;;;;;1999.90;999.90;;;26.10;99.90;;;;;;5095176;28;20171;-68
2023/06/22 08:00:33;;;;;;;1999.90;999.90;;;26.20;99.90;;;;;;5095227;28;20170;-68
2023/06/22 08:02:59;;;;;;;1999.90;999.90;;;26.40;99.90;;;;;;5095311;28;20178;-67
2023/06/22 08:05:25;;;;;;;1999.90;999.90;;;26.50;99.90;;;;;;5094834;28;20770;-67
2023/06/22 08:07:51;;;;;;;1999.90;999.90;;;26.70;99.90;;;;;;5095237;28;20177;-68
2023/06/22 08:10:16;;;;;;;1999.90;999.90;;;26.90;99.90;;;;;;5094979;28;20206;-67
2023/06/22 08:12:43;;;;;;;1999.90;999.90;;;27.00;99.90;;;;;;5094759;28;20455;-68
2023/06/22 08:15:09;;;;;;;1999.90;999.90;;;27.10;99.90;;;;;;5094781;28;20541;-67
2023/06/22 08:17:39;;;;;;;1999.90;999.90;;;27.10;99.90;;;;;;5094815;28;20426;-68
2023/06/22 08:20:12;;;;;;;1999.90;999.90;;;27.20;99.90;;;;;;5093953;28;20409;-67
2023/06/22 08:22:38;;;;;;;1999.90;999.90;;;27.30;99.90;;;;;;5094022;28;20880;-68
2023/06/22 08:25:05;;;;;;;1999.90;999.90;;;27.40;99.90;;;;;;5094531;28;20477;-67
2023/06/22 08:27:33;;;;;;;1999.90;999.90;;;27.50;99.90;;;;;;5094725;28;20423;-67
2023/06/22 08:30:00;;;;;;;1999.90;999.90;;;27.60;99.90;;;;;;5094587;28;20460;-68
2023/06/22 08:32:54;;;;;;;1999.90;999.90;;;27.60;99.90;;;;;;5093173;28;20408;-68
2023/06/22 08:35:20;;;;;;;1999.90;999.90;;;27.70;99.90;;;;;;5074024;28;20426;-68
2023/06/22 08:37:52;;;;;;;1999.90;999.90;;;27.90;99.90;;;;;;5074079;28;20413;-67
2023/06/22 08:40:20;;;;;;;1999.90;999.90;;;28.10;99.90;;;;;;5073633;28;20402;-66
2023/06/22 08:42:46;;;;;;;1999.90;999.90;;;28.30;99.90;;;;;;5073738;28;20390;-68
2023/06/22 08:45:12;;;;;;;1999.90;999.90;;;28.30;99.90;;;;;;5073929;28;20457;-68
2023/06/22 08:50:56;;;;;;;1999.90;999.90;;;28.50;99.90;;;;;;5073421;28;20470;-67
2023/06/22 08:53:22;;;;;;;1999.90;999.90;;;28.60;99.90;;;;;;5073865;28;20409;-67
2023/06/22 08:55:47;;;;;;;1999.90;999.90;;;28.70;99.90;;;;;;5074003;28;20229;-67
2023/06/22 08:58:13;;;;;;;1999.90;999.90;;;28.80;99.90;;;;;;5073804;28;20228;-68
2023/06/22 09:00:38;;;;;;;1999.90;999.90;;;29.00;99.90;;;;;;5073733;28;20171;-67
2023/06/22 09:03:04;;;;;;;1999.90;999.90;;;29.00;99.90;;;;;;5073414;28;20209;-68
2023/06/22 09:05:30;;;;;;;1999.90;999.90;;;29.00;99.90;;;;;;5073543;28;20198;-67
2023/06/22 09:07:58;;;;;;;1999.90;999.90;;;29.10;99.90;;;;;;5073576;28;20896;-67
2023/06/22 09:10:24;;;;;;;1999.90;999.90;;;29.20;99.90;;;;;;5073724;28;20187;-68
2023/06/22 09:12:50;;;;;;;1999.90;999.90;;;29.10;99.90;;;;;;5073260;28;21043;-68
2023/06/22 09:15:16;;;;;;;1999.90;999.90;;;29.30;99.90;;;;;;5073458;28;20408;-68
2023/06/22 09:17:42;;;;;;;1999.90;999.90;;;29.40;99.90;;;;;;5073397;28;20171;-67
2023/06/22 09:20:10;;;;;;;1999.90;999.90;;;29.40;99.90;;;;;;5073295;28;20530;-67
2023/06/22 09:22:36;;;;;;;1999.90;999.90;;;29.40;99.90;;;;;;5073082;28;20236;-67
2023/06/22 09:25:03;;;;;;;1999.90;999.90;;;29.50;99.90;;;;;;5074377;28;20460;-67
2023/06/22 09:27:28;;;;;;;1999.90;999.90;;;29.60;99.90;;;;;;5077769;28;20645;-68
2023/06/22 09:29:54;;;;;;;1999.90;999.90;;;29.60;99.90;;;;;;5076723;28;20416;-68
2023/06/22 09:32:20;;;;;;;1999.90;999.90;;;29.70;99.90;;;;;;5075851;28;20171;-67
2023/06/22 09:34:45;;;;;;;1999.90;999.90;;;29.90;99.90;;;;;;5076588;28;20277;-68
2023/06/22 09:37:11;;;;;;;1999.90;999.90;;;30.10;99.90;;;;;;5078243;28;20172;-68
2023/06/22 09:39:36;;;;;;;1999.90;999.90;;;30.30;99.90;;;;;;5077623;28;20171;-68
2023/06/22 09:42:02;;;;;;;1999.90;999.90;;;30.40;99.90;;;;;;5078107;28;20171;-68
2023/06/22 09:44:28;;;;;;;1999.90;999.90;;;30.50;99.90;;;;;;5077842;28;20201;-68
2023/06/22 09:46:54;;;;;;;1999.90;999.90;;;30.40;99.90;;;;;;5077680;28;20167;-67
2023/06/22 09:49:19;;;;;;;1999.90;999.90;;;30.50;99.90;;;;;;5077782;28;20696;-67
2023/06/22 09:51:45;;;;;;;1999.90;999.90;;;30.50;99.90;;;;;;5076084;28;20246;-68
2023/06/22 09:54:10;;;;;;;1999.90;999.90;;;30.40;98.50;;;;;;5076380;28;20159;-69
2023/06/22 09:56:37;;;;;;;1999.90;999.90;;;30.00;98.70;;;;;;5076242;28;20220;-67
2023/06/22 09:59:03;;;;;;;1999.90;999.90;;;29.70;99.40;;;;;;5075493;28;20174;-67
2023/06/22 10:01:28;;;;;;;1999.90;999.90;;;29.50;99.80;;;;;;5072541;28;20922;-67
2023/06/22 10:03:56;;;;;;;1999.90;999.90;;;29.30;99.90;;;;;;5072511;28;20216;-68
2023/06/22 10:06:22;;;;;;;1999.90;999.90;;;28.90;99.90;;;;;;5076549;28;20206;-68
2023/06/22 10:08:48;;;;;;;1999.90;999.90;;;28.70;99.90;;;;;;5075680;28;20803;-69
2023/06/22 10:11:14;;;;;;;1999.90;999.90;;;28.50;99.90;;;;;;5075446;28;20409;-68
2023/06/22 10:13:39;;;;;;;1999.90;999.90;;;28.40;99.90;;;;;;5077291;28;20412;-68
2023/06/22 10:16:05;;;;;;;1999.90;999.90;;;28.30;99.90;;;;;;5076761;28;20187;-68
2023/06/22 10:18:30;;;;;;;1999.90;999.90;;;28.00;99.90;;;;;;5075753;28;20171;-68
2023/06/22 10:20:56;;;;;;;1999.90;999.90;;;27.70;99.90;;;;;;5074613;28;20178;-69
2023/06/22 10:23:22;;;;;;;1999.90;999.90;;;27.50;99.90;;;;;;5074844;28;20214;-68
2023/06/22 10:25:48;;;;;;;1999.90;999.90;;;27.20;99.90;;;;;;5074493;28;20621;-68
2023/06/22 10:28:14;;;;;;;1999.90;999.90;;;27.00;99.90;;;;;;5073710;28;20454;-68
2023/06/22 10:30:43;;;;;;;1999.90;999.90;;;26.60;99.90;;;;;;5075364;28;20488;-68
2023/06/22 10:33:10;;;;;;;1999.90;999.90;;;26.40;99.90;;;;;;5074216;28;20387;-68
2023/06/22 10:35:37;;;;;;;1999.90;999.90;;;26.10;99.90;;;;;;5073502;28;20930;-68
2023/06/22 10:38:03;;;;;;;1999.90;999.90;;;25.70;99.90;;;;;;5073809;28;20911;-68
2023/06/22 10:40:29;;;;;;;1999.90;999.90;;;25.60;99.90;;;;;;5074004;28;20409;-68
2023/06/22 10:42:55;;;;;;;1999.90;999.90;;;25.30;99.90;;;;;;5074195;28;20388;-69
2023/06/22 10:45:20;;;;;;;1999.90;999.90;;;25.10;99.90;;;;;;5077349;28;20541;-68
2023/06/22 10:47:46;;;;;;;1999.90;999.90;;;25.00;99.90;;;;;;5095005;28;20181;-68
2023/06/22 10:50:12;;;;;;;1999.90;999.90;;;24.90;99.90;;;;;;5090562;28;20181;-69
2023/06/22 10:52:38;;;;;;;1999.90;999.90;;;24.80;99.90;;;;;;5093556;28;20443;-67
2023/06/22 10:55:05;;;;;;;1999.90;999.90;;;24.80;99.90;;;;;;5098277;28;20406;-67
2023/06/22 10:57:30;;;;;;;1999.90;999.90;;;24.60;99.90;;;;;;5095014;28;20261;-66
2023/06/22 10:59:56;;;;;;;1999.90;999.90;;;24.50;99.90;;;;;;5093555;28;20421;-67
2023/06/22 11:02:21;;;;;;;1999.90;999.90;;;24.30;99.90;;;;;;5090915;28;20232;-67
2023/06/22 11:04:47;;;;;;;1999.90;999.90;;;24.30;99.90;;;;;;5089206;28;20242;-67
2023/06/22 11:07:13;;;;;;;1999.90;999.90;;;24.30;99.90;;;;;;5088298;28;20176;-67
2023/06/22 11:09:39;;;;;;;1999.90;999.90;;;24.30;99.90;;;;;;5088016;28;20193;-66
2023/06/22 11:12:06;;;;;;;1999.90;999.90;;;24.30;99.90;;;;;;5089294;28;20382;-67
2023/06/22 11:14:33;;;;;;;1999.90;999.90;;;24.30;99.90;;;;;;5084561;28;20251;-67
2023/06/22 11:16:59;;;;;;;1999.90;999.90;;;24.30;99.90;;;;;;5087406;28;20443;-69
2023/06/22 11:19:24;;;;;;;1999.90;999.90;;;24.30;99.90;;;;;;5088287;28;20495;-67
2023/06/22 11:21:50;;;;;;;1999.90;999.90;;;24.30;99.90;;;;;;5086750;28;20379;-66
2023/06/22 11:24:16;;;;;;;1999.90;999.90;;;24.40;99.90;;;;;;5088418;28;20240;-67
2023/06/22 11:26:42;;;;;;;1999.90;999.90;;;24.50;99.90;;;;;;5087956;28;20194;-68
2023/06/22 11:29:08;;;;;;;1999.90;999.90;;;24.60;99.90;;;;;;5087111;28;20948;-66
2023/06/22 11:31:34;;;;;;;1999.90;999.90;;;24.90;99.90;;;;;;5087765;28;20178;-67
2023/06/22 11:34:00;;;;;;;1999.90;999.90;;;25.30;99.90;;;;;;5087709;28;20551;-67
2023/06/22 11:36:26;;;;;;;1999.90;999.90;;;25.70;99.90;;;;;;5086481;28;20391;-68
2023/06/22 11:38:52;;;;;;;1999.90;999.90;;;26.20;99.90;;;;;;5087830;28;20173;-66
2023/06/22 11:41:18;;;;;;;1999.90;999.90;;;26.60;99.90;;;;;;5087519;28;20875;-67
2023/06/22 11:43:44;;;;;;;1999.90;999.90;;;27.00;99.90;;;;;;5087826;28;20177;-68
2023/06/22 11:46:10;;;;;;;1999.90;999.90;;;27.40;99.90;;;;;;5087830;28;20285;-67
2023/06/22 11:48:36;;;;;;;1999.90;999.90;;;27.60;99.90;;;;;;5086446;28;20503;-67
2023/06/22 11:51:02;;;;;;;1999.90;999.90;;;27.60;99.90;;;;;;5087801;28;20469;-67
2023/06/22 11:53:28;;;;;;;1999.90;999.90;;;27.60;99.90;;;;;;5087642;28;20178;-67
2023/06/22 11:55:55;;;;;;;1999.90;999.90;;;27.50;99.90;;;;;;5089878;28;20425;-67
2023/06/22 11:58:20;;;;;;;1999.90;999.90;;;27.50;99.90;;;;;;5091702;28;20179;-67
2023/06/22 12:00:47;;;;;;;1999.90;999.90;;;27.50;99.90;;;;;;5091455;28;20411;-67